createdAt,value
2018-06-18T00:00:11.012Z,22.94
2018-06-18T00:00:42.583Z,22.96
2018-06-18T00:01:14.158Z,22.97
2018-06-18T00:01:45.765Z,22.98
2018-06-18T00:02:17.349Z,23.00
2018-06-18T00:02:49.051Z,23.01
2018-06-18T00:03:20.634Z,23.01
2018-06-18T00:03:52.208Z,23.02
2018-06-18T00:04:23.840Z,23.02
2018-06-18T00:04:55.445Z,23.01
2018-06-18T00:05:27.040Z,23.01
2018-06-18T00:05:58.612Z,23.02
2018-06-18T00:06:30.204Z,23.01
2018-06-18T00:07:01.793Z,23.01
2018-06-18T00:07:33.373Z,23.00
2018-06-18T00:08:04.969Z,23.00
2018-06-18T00:08:36.552Z,23.01
2018-06-18T00:09:08.120Z,23.01
2018-06-18T00:09:39.789Z,23.00
2018-06-18T00:10:11.397Z,23.00
2018-06-18T00:10:43.002Z,23.01
2018-06-18T00:11:14.609Z,23.00
2018-06-18T00:11:46.216Z,23.00
2018-06-18T00:12:17.789Z,23.00
2018-06-18T00:12:49.398Z,22.99
2018-06-18T00:13:20.981Z,22.98
2018-06-18T00:13:52.584Z,22.99
2018-06-18T00:14:24.180Z,23.00
2018-06-18T00:14:55.812Z,22.99
2018-06-18T00:15:27.397Z,22.99
2018-06-18T00:15:58.981Z,22.98
2018-06-18T00:16:30.589Z,22.99
2018-06-18T00:17:02.193Z,22.98
2018-06-18T00:17:33.764Z,22.96
2018-06-18T00:18:05.375Z,22.98
2018-06-18T00:18:36.990Z,22.97
2018-06-18T00:19:08.592Z,22.97
2018-06-18T00:19:40.164Z,22.97
2018-06-18T00:20:12.002Z,22.97
2018-06-18T00:20:43.605Z,22.97
2018-06-18T00:21:15.218Z,22.96
2018-06-18T00:21:46.816Z,22.96
2018-06-18T00:22:18.434Z,22.96
2018-06-18T00:22:50.041Z,22.95
2018-06-18T00:23:21.625Z,22.95
2018-06-18T00:23:53.206Z,22.96
2018-06-18T00:24:24.790Z,22.96
2018-06-18T00:24:56.366Z,22.95
2018-06-18T00:25:28.012Z,22.95
2018-06-18T00:25:59.621Z,22.95
2018-06-18T00:26:31.225Z,22.95
2018-06-18T00:27:02.829Z,22.94
2018-06-18T00:27:34.428Z,22.94
2018-06-18T00:28:06.010Z,22.94
2018-06-18T00:28:37.595Z,22.94
2018-06-18T00:29:09.177Z,22.93
2018-06-18T00:29:40.772Z,22.94
2018-06-18T00:30:12.364Z,22.93
2018-06-18T00:30:44.014Z,22.92
2018-06-18T00:31:15.611Z,22.93
2018-06-18T00:31:47.226Z,22.93
2018-06-18T00:32:18.833Z,22.93
2018-06-18T00:32:50.432Z,22.93
2018-06-18T00:33:22.042Z,22.93
2018-06-18T00:33:53.612Z,22.93
2018-06-18T00:34:25.188Z,22.93
2018-06-18T00:34:56.764Z,22.92
2018-06-18T00:35:28.355Z,22.92
2018-06-18T00:35:59.997Z,22.92
2018-06-18T00:36:31.589Z,22.92
2018-06-18T00:37:03.193Z,22.92
2018-06-18T00:37:34.777Z,22.92
2018-06-18T00:38:06.361Z,22.92
2018-06-18T00:38:37.945Z,22.90
2018-06-18T00:39:09.515Z,22.93
2018-06-18T00:39:41.091Z,22.94
2018-06-18T00:40:12.671Z,22.94
2018-06-18T00:40:44.250Z,22.94
2018-06-18T00:41:15.828Z,22.94
2018-06-18T00:41:47.430Z,22.94
2018-06-18T00:42:19.024Z,22.95
2018-06-18T00:42:50.629Z,22.95
2018-06-18T00:43:22.224Z,22.95
2018-06-18T00:43:53.810Z,22.92
2018-06-18T00:44:25.418Z,22.94
2018-06-18T00:44:57.005Z,22.92
2018-06-18T00:45:28.613Z,22.94
2018-06-18T00:46:00.305Z,22.94
2018-06-18T00:46:31.909Z,22.93
2018-06-18T00:47:03.504Z,22.93
2018-06-18T00:47:35.114Z,22.93
2018-06-18T00:48:06.697Z,22.94
2018-06-18T00:48:38.281Z,22.94
2018-06-18T00:49:09.866Z,22.92
2018-06-18T00:49:41.469Z,22.94
2018-06-18T00:50:13.077Z,22.94
2018-06-18T00:50:44.666Z,22.94
2018-06-18T00:51:16.232Z,22.93
2018-06-18T00:51:47.859Z,22.94
2018-06-18T00:52:19.455Z,22.93
2018-06-18T00:52:51.038Z,22.91
2018-06-18T00:53:22.625Z,22.92
2018-06-18T00:53:54.225Z,22.93
2018-06-18T00:54:25.813Z,22.94
2018-06-18T00:54:57.413Z,22.94
2018-06-18T00:55:29.017Z,22.94
2018-06-18T00:56:00.621Z,22.94
2018-06-18T00:56:32.202Z,22.95
2018-06-18T00:57:03.831Z,22.94
2018-06-18T00:57:35.446Z,22.94
2018-06-18T00:58:07.029Z,22.92
2018-06-18T00:58:38.624Z,22.95
2018-06-18T00:59:10.206Z,22.94
2018-06-18T00:59:41.789Z,22.95
2018-06-18T01:00:13.377Z,22.95
2018-06-18T01:00:44.980Z,22.95
2018-06-18T01:01:16.558Z,22.94
2018-06-18T01:01:48.145Z,22.95
2018-06-18T01:02:19.762Z,22.95
2018-06-18T01:02:51.343Z,22.96
2018-06-18T01:03:22.925Z,22.95
2018-06-18T01:03:54.496Z,22.95
2018-06-18T01:04:26.068Z,22.94
2018-06-18T01:04:57.645Z,22.94
2018-06-18T01:05:29.250Z,22.93
2018-06-18T01:06:00.837Z,22.92
2018-06-18T01:06:32.408Z,22.94
2018-06-18T01:07:04.018Z,22.93
2018-06-18T01:07:35.630Z,22.93
2018-06-18T01:08:07.220Z,22.93
2018-06-18T01:08:38.840Z,22.93
2018-06-18T01:09:10.441Z,22.93
2018-06-18T01:09:42.041Z,22.93
2018-06-18T01:10:13.629Z,22.93
2018-06-18T01:10:45.241Z,22.93
2018-06-18T01:11:16.850Z,22.93
2018-06-18T01:11:48.461Z,22.92
2018-06-18T01:12:20.074Z,22.93
2018-06-18T01:12:51.698Z,22.93
2018-06-18T01:13:23.280Z,22.93
2018-06-18T01:13:54.862Z,22.92
2018-06-18T01:14:26.451Z,22.92
2018-06-18T01:14:58.024Z,22.91
2018-06-18T01:15:29.616Z,22.91
2018-06-18T01:16:01.188Z,22.91
2018-06-18T01:16:32.789Z,22.92
2018-06-18T01:17:04.393Z,22.92
2018-06-18T01:17:35.976Z,22.91
2018-06-18T01:18:07.553Z,22.91
2018-06-18T01:18:39.154Z,22.90
2018-06-18T01:19:10.732Z,22.89
2018-06-18T01:19:42.310Z,22.88
2018-06-18T01:20:13.900Z,22.87
2018-06-18T01:20:45.476Z,22.86
2018-06-18T01:21:17.057Z,22.85
2018-06-18T01:21:48.657Z,22.85
2018-06-18T01:22:20.261Z,22.86
2018-06-18T01:22:51.913Z,22.85
2018-06-18T01:23:23.547Z,22.85
2018-06-18T01:23:55.126Z,22.84
2018-06-18T01:24:26.704Z,22.84
2018-06-18T01:24:58.348Z,22.83
2018-06-18T01:25:29.918Z,22.82
2018-06-18T01:26:01.492Z,22.82
2018-06-18T01:26:33.094Z,22.81
2018-06-18T01:27:04.701Z,22.82
2018-06-18T01:27:36.286Z,22.82
2018-06-18T01:28:07.877Z,22.86
2018-06-18T01:28:39.444Z,22.86
2018-06-18T01:29:11.048Z,22.85
2018-06-18T01:29:42.652Z,22.83
2018-06-18T01:30:14.261Z,22.83
2018-06-18T01:30:45.873Z,22.83
2018-06-18T01:31:17.487Z,22.82
2018-06-18T01:31:49.077Z,22.83
2018-06-18T01:32:20.684Z,22.82
2018-06-18T01:32:52.260Z,22.82
2018-06-18T01:33:23.845Z,22.81
2018-06-18T01:33:55.463Z,22.81
2018-06-18T01:34:27.065Z,22.80
2018-06-18T01:34:58.674Z,22.80
2018-06-18T01:35:30.277Z,22.80
2018-06-18T01:36:01.862Z,22.80
2018-06-18T01:36:33.442Z,22.79
2018-06-18T01:37:05.109Z,22.77
2018-06-18T01:37:36.691Z,22.79
2018-06-18T01:38:08.259Z,22.79
2018-06-18T01:38:39.860Z,22.79
2018-06-18T01:39:11.510Z,22.78
2018-06-18T01:39:43.083Z,22.78
2018-06-18T01:40:14.685Z,22.78
2018-06-18T01:40:46.294Z,22.78
2018-06-18T01:41:17.901Z,22.78
2018-06-18T01:41:49.487Z,22.77
2018-06-18T01:42:21.097Z,22.77
2018-06-18T01:42:52.685Z,22.76
2018-06-18T01:43:24.266Z,22.78
2018-06-18T01:43:55.870Z,22.78
2018-06-18T01:44:27.493Z,22.79
2018-06-18T01:44:59.076Z,22.80
2018-06-18T01:45:30.654Z,22.80
2018-06-18T01:46:02.230Z,22.80
2018-06-18T01:46:33.796Z,22.81
2018-06-18T01:47:05.374Z,22.82
2018-06-18T01:47:36.963Z,22.83
2018-06-18T01:48:08.568Z,22.83
2018-06-18T01:48:40.178Z,22.83
2018-06-18T01:49:11.772Z,22.84
2018-06-18T01:49:43.413Z,22.83
2018-06-18T01:50:15.009Z,22.87
2018-06-18T01:50:46.595Z,22.93
2018-06-18T01:51:18.176Z,22.94
2018-06-18T01:51:49.744Z,22.94
2018-06-18T01:52:21.322Z,22.92
2018-06-18T01:52:52.925Z,22.92
2018-06-18T01:53:24.505Z,22.90
2018-06-18T01:53:56.081Z,22.89
2018-06-18T01:54:27.755Z,22.89
2018-06-18T01:54:59.369Z,22.89
2018-06-18T01:55:30.985Z,22.90
2018-06-18T01:56:02.573Z,22.89
2018-06-18T01:56:34.178Z,22.90
2018-06-18T01:57:05.791Z,22.90
2018-06-18T01:57:37.379Z,22.91
2018-06-18T01:58:08.962Z,22.91
2018-06-18T01:58:40.567Z,22.90
2018-06-18T01:59:12.153Z,22.90
2018-06-18T01:59:43.730Z,22.91
2018-06-18T02:00:15.373Z,22.91
2018-06-18T02:00:46.948Z,22.91
2018-06-18T02:01:18.549Z,22.92
2018-06-18T02:01:50.142Z,22.93
2018-06-18T02:02:21.746Z,22.93
2018-06-18T02:02:53.354Z,22.94
2018-06-18T02:03:24.924Z,22.94
2018-06-18T02:03:56.506Z,22.94
2018-06-18T02:04:28.097Z,22.94
2018-06-18T02:04:59.667Z,22.95
2018-06-18T02:05:31.476Z,22.96
2018-06-18T02:06:03.052Z,22.97
2018-06-18T02:06:34.632Z,22.96
2018-06-18T02:07:06.218Z,22.96
2018-06-18T02:07:37.867Z,22.97
2018-06-18T02:08:09.461Z,22.97
2018-06-18T02:08:41.041Z,22.98
2018-06-18T02:09:12.626Z,22.98
2018-06-18T02:09:44.229Z,22.97
2018-06-18T02:10:15.812Z,22.99
2018-06-18T02:10:47.412Z,22.98
2018-06-18T02:11:19.017Z,22.98
2018-06-18T02:11:50.612Z,22.98
2018-06-18T02:12:22.193Z,22.98
2018-06-18T02:12:53.793Z,22.98
2018-06-18T02:13:25.401Z,22.98
2018-06-18T02:13:56.985Z,22.99
2018-06-18T02:14:28.575Z,22.98
2018-06-18T02:15:00.171Z,22.98
2018-06-18T02:15:31.754Z,22.98
2018-06-18T02:16:03.589Z,22.96
2018-06-18T02:16:35.170Z,22.98
2018-06-18T02:17:06.783Z,22.97
2018-06-18T02:17:38.365Z,22.97
2018-06-18T02:18:09.966Z,22.97
2018-06-18T02:18:41.554Z,22.97
2018-06-18T02:19:13.194Z,22.98
2018-06-18T02:19:44.778Z,22.97
2018-06-18T02:20:16.351Z,22.97
2018-06-18T02:20:47.929Z,22.96
2018-06-18T02:21:19.570Z,22.97
2018-06-18T02:21:51.177Z,22.97
2018-06-18T02:22:22.833Z,22.97
2018-06-18T02:22:54.409Z,22.97
2018-06-18T02:23:25.988Z,22.98
2018-06-18T02:23:57.584Z,22.97
2018-06-18T02:24:29.169Z,22.98
2018-06-18T02:25:00.834Z,22.98
2018-06-18T02:25:32.427Z,22.97
2018-06-18T02:26:03.999Z,22.97
2018-06-18T02:26:35.638Z,22.97
2018-06-18T02:27:07.236Z,22.97
2018-06-18T02:27:38.841Z,22.97
2018-06-18T02:28:10.449Z,22.96
2018-06-18T02:28:56.908Z,22.97
2018-06-18T02:30:39.358Z,22.98
2018-06-18T02:32:22.882Z,22.97
2018-06-18T02:33:15.264Z,22.97
2018-06-18T02:34:57.812Z,22.97
2018-06-18T02:35:35.184Z,22.97
2018-06-18T02:36:12.450Z,22.97
2018-06-18T02:36:49.659Z,22.98
2018-06-18T02:37:38.990Z,22.97
2018-06-18T02:39:06.468Z,22.97
2018-06-18T02:39:38.054Z,22.97
2018-06-18T02:40:09.664Z,22.97
2018-06-18T02:40:41.265Z,22.99
2018-06-18T02:41:12.857Z,23.12
2018-06-18T02:41:44.475Z,23.20
2018-06-18T02:42:16.114Z,23.24
2018-06-18T02:42:47.718Z,23.23
2018-06-18T02:43:19.317Z,23.22
2018-06-18T02:43:50.905Z,23.20
2018-06-18T02:44:22.495Z,23.17
2018-06-18T02:44:54.077Z,23.15
2018-06-18T02:45:25.661Z,23.12
2018-06-18T02:45:57.246Z,23.09
2018-06-18T02:46:28.820Z,23.07
2018-06-18T02:47:00.405Z,23.05
2018-06-18T02:47:32.005Z,23.01
2018-06-18T02:48:03.590Z,23.01
2018-06-18T02:48:35.183Z,22.99
2018-06-18T02:49:06.789Z,22.98
2018-06-18T02:49:38.407Z,22.95
2018-06-18T02:50:09.983Z,22.95
2018-06-18T02:50:41.566Z,22.94
2018-06-18T02:51:13.132Z,22.93
2018-06-18T02:51:44.700Z,22.92
2018-06-18T02:52:16.277Z,22.91
2018-06-18T02:52:47.894Z,22.90
2018-06-18T02:53:19.464Z,22.91
2018-06-18T02:53:51.059Z,22.95
2018-06-18T02:54:22.659Z,22.97
2018-06-18T02:54:54.236Z,23.00
2018-06-18T02:55:26.050Z,23.03
2018-06-18T02:55:57.628Z,23.08
2018-06-18T02:56:29.298Z,23.14
2018-06-18T02:57:00.914Z,23.17
2018-06-18T02:57:32.737Z,23.14
2018-06-18T02:58:04.341Z,23.13
2018-06-18T02:58:35.925Z,23.09
2018-06-18T02:59:07.513Z,23.06
2018-06-18T02:59:39.116Z,23.03
2018-06-18T03:00:10.697Z,22.99
2018-06-18T03:00:42.320Z,22.97
2018-06-18T03:01:13.986Z,22.94
2018-06-18T03:01:45.566Z,22.92
2018-06-18T03:02:17.165Z,22.90
2018-06-18T03:02:48.766Z,22.88
2018-06-18T03:03:20.363Z,22.86
2018-06-18T03:03:51.981Z,22.83
2018-06-18T03:04:23.575Z,22.83
2018-06-18T03:04:55.157Z,22.81
2018-06-18T03:05:26.770Z,22.81
2018-06-18T03:05:58.366Z,22.80
2018-06-18T03:06:29.960Z,22.78
2018-06-18T03:07:01.625Z,22.78
2018-06-18T03:07:33.224Z,22.77
2018-06-18T03:08:04.819Z,22.76
2018-06-18T03:08:36.408Z,22.75
2018-06-18T03:09:07.986Z,22.75
2018-06-18T03:09:39.570Z,22.73
2018-06-18T03:10:11.177Z,22.72
2018-06-18T03:10:42.782Z,22.72
2018-06-18T03:11:14.391Z,22.71
2018-06-18T03:11:45.974Z,22.71
2018-06-18T03:12:17.607Z,22.71
2018-06-18T03:12:49.199Z,22.70
2018-06-18T03:13:20.783Z,22.70
2018-06-18T03:13:52.392Z,22.69
2018-06-18T03:14:23.991Z,22.69
2018-06-18T03:14:55.584Z,22.69
2018-06-18T03:15:27.181Z,22.69
2018-06-18T03:15:58.765Z,22.68
2018-06-18T03:16:30.360Z,22.67
2018-06-18T03:17:01.964Z,22.68
2018-06-18T03:17:33.532Z,22.68
2018-06-18T03:18:05.133Z,22.66
2018-06-18T03:18:36.826Z,22.67
2018-06-18T03:19:08.448Z,22.66
2018-06-18T03:19:58.962Z,22.66
2018-06-18T03:21:42.426Z,22.65
2018-06-18T03:23:25.957Z,22.64
2018-06-18T03:24:53.976Z,22.63
2018-06-18T03:25:31.294Z,22.63
2018-06-18T03:26:23.727Z,22.63
2018-06-18T03:28:07.301Z,22.63
2018-06-18T03:28:44.870Z,22.62
2018-06-18T03:29:16.468Z,22.62
2018-06-18T03:29:48.060Z,22.62
2018-06-18T03:30:19.642Z,22.62
2018-06-18T03:30:51.226Z,22.62
2018-06-18T03:31:22.830Z,22.61
2018-06-18T03:31:54.434Z,22.62
2018-06-18T03:32:26.042Z,22.61
2018-06-18T03:32:57.649Z,22.61
2018-06-18T03:33:29.301Z,22.61
2018-06-18T03:34:00.910Z,22.61
2018-06-18T03:34:32.518Z,22.61
2018-06-18T03:35:04.104Z,22.60
2018-06-18T03:35:35.740Z,22.60
2018-06-18T03:36:07.354Z,22.59
2018-06-18T03:36:38.938Z,22.60
2018-06-18T03:37:10.570Z,22.58
2018-06-18T03:37:42.144Z,22.58
2018-06-18T03:38:13.770Z,22.58
2018-06-18T03:38:45.340Z,22.59
2018-06-18T03:39:16.962Z,22.59
2018-06-18T03:39:48.546Z,22.58
2018-06-18T03:40:20.121Z,22.58
2018-06-18T03:40:51.716Z,22.58
2018-06-18T03:41:23.325Z,22.57
2018-06-18T03:41:54.905Z,22.58
2018-06-18T03:42:26.476Z,22.57
2018-06-18T03:42:58.067Z,22.55
2018-06-18T03:43:29.725Z,22.57
2018-06-18T03:44:01.330Z,22.57
2018-06-18T03:44:32.941Z,22.54
2018-06-18T03:45:04.549Z,22.56
2018-06-18T03:45:36.138Z,22.56
2018-06-18T03:46:07.722Z,22.56
2018-06-18T03:46:39.306Z,22.55
2018-06-18T03:47:10.914Z,22.56
2018-06-18T03:47:42.522Z,22.54
2018-06-18T03:48:14.110Z,22.55
2018-06-18T03:48:45.753Z,22.55
2018-06-18T03:49:17.361Z,22.55
2018-06-18T03:49:48.960Z,22.54
2018-06-18T03:50:20.542Z,22.54
2018-06-18T03:50:52.134Z,22.55
2018-06-18T03:51:23.745Z,22.54
2018-06-18T03:51:55.353Z,22.55
2018-06-18T03:52:26.941Z,22.54
2018-06-18T03:52:58.541Z,22.53
2018-06-18T03:53:30.125Z,22.52
2018-06-18T03:54:01.760Z,22.53
2018-06-18T03:54:33.349Z,22.53
2018-06-18T03:55:04.920Z,22.52
2018-06-18T03:55:36.512Z,22.52
2018-06-18T03:56:08.091Z,22.52
2018-06-18T03:56:39.701Z,22.52
2018-06-18T03:57:11.314Z,22.50
2018-06-18T03:57:42.917Z,22.51
2018-06-18T03:58:14.498Z,22.51
2018-06-18T03:58:46.138Z,22.51
2018-06-18T03:59:17.748Z,22.51
2018-06-18T03:59:49.333Z,22.51
2018-06-18T04:00:20.916Z,22.52
2018-06-18T04:00:52.484Z,22.51
2018-06-18T04:01:24.056Z,22.51
2018-06-18T04:02:10.521Z,22.51
2018-06-18T04:03:53.958Z,22.51
2018-06-18T04:05:27.412Z,22.51
2018-06-18T04:06:04.621Z,22.50
2018-06-18T04:06:52.073Z,22.50
2018-06-18T04:07:31.254Z,22.50
2018-06-18T04:08:02.833Z,22.50
2018-06-18T04:08:34.437Z,22.50
2018-06-18T04:09:06.018Z,22.50
2018-06-18T04:09:37.625Z,22.50
2018-06-18T04:10:29.143Z,22.50
2018-06-18T04:12:04.562Z,22.50
2018-06-18T04:12:36.142Z,22.49
2018-06-18T04:13:07.725Z,22.49
2018-06-18T04:13:39.329Z,22.47
2018-06-18T04:14:10.937Z,22.49
2018-06-18T04:14:42.520Z,22.48
2018-06-18T04:15:14.110Z,22.48
2018-06-18T04:15:45.676Z,22.48
2018-06-18T04:16:17.260Z,22.48
2018-06-18T04:16:48.852Z,22.48
2018-06-18T04:17:20.460Z,22.49
2018-06-18T04:17:52.049Z,22.49
2018-06-18T04:18:23.658Z,22.49
2018-06-18T04:18:55.251Z,22.49
2018-06-18T04:19:26.834Z,22.49
2018-06-18T04:19:58.442Z,22.50
2018-06-18T04:20:30.091Z,22.50
2018-06-18T04:21:01.674Z,22.49
2018-06-18T04:21:33.279Z,22.49
2018-06-18T04:22:04.865Z,22.50
2018-06-18T04:22:36.445Z,22.48
2018-06-18T04:23:08.020Z,22.50
2018-06-18T04:23:39.626Z,22.50
2018-06-18T04:24:11.229Z,22.49
2018-06-18T04:24:42.851Z,22.50
2018-06-18T04:25:14.432Z,22.49
2018-06-18T04:25:46.070Z,22.50
2018-06-18T04:26:17.673Z,22.50
2018-06-18T04:26:49.254Z,22.52
2018-06-18T04:27:20.857Z,22.54
2018-06-18T04:27:52.439Z,22.59
2018-06-18T04:28:24.032Z,22.73
2018-06-18T04:28:55.638Z,23.06
2018-06-18T04:29:27.242Z,23.27
2018-06-18T04:29:58.840Z,23.57
2018-06-18T04:30:30.440Z,23.97
2018-06-18T04:31:02.106Z,24.42
2018-06-18T04:31:33.715Z,24.77
2018-06-18T04:32:05.368Z,25.08
2018-06-18T04:32:36.971Z,25.32
2018-06-18T04:33:08.586Z,25.53
2018-06-18T04:33:40.169Z,25.67
2018-06-18T04:34:11.749Z,25.79
2018-06-18T04:34:43.334Z,25.86
2018-06-18T04:35:14.917Z,25.88
2018-06-18T04:35:46.505Z,25.88
2018-06-18T04:36:18.093Z,25.84
2018-06-18T04:36:49.681Z,25.80
2018-06-18T04:37:21.314Z,25.73
2018-06-18T04:37:52.944Z,25.64
2018-06-18T04:38:24.541Z,25.56
2018-06-18T04:38:56.112Z,25.47
2018-06-18T04:39:27.685Z,25.38
2018-06-18T04:39:59.265Z,25.32
2018-06-18T04:40:30.856Z,25.26
2018-06-18T04:41:02.469Z,25.24
2018-06-18T04:41:34.069Z,25.24
2018-06-18T04:42:05.677Z,25.27
2018-06-18T04:42:37.309Z,25.30
2018-06-18T04:43:14.666Z,25.35
2018-06-18T04:44:04.064Z,25.42
2018-06-18T04:45:41.606Z,25.70
2018-06-18T04:46:13.205Z,25.82
2018-06-18T04:46:44.809Z,25.89
2018-06-18T04:47:37.232Z,25.97
2018-06-18T04:48:14.606Z,26.11
2018-06-18T04:49:03.885Z,26.18
2018-06-18T04:50:48.430Z,26.38
2018-06-18T04:51:20.005Z,26.43
2018-06-18T04:51:51.594Z,26.43
2018-06-18T04:52:23.173Z,26.40
2018-06-18T04:52:54.793Z,26.37
2018-06-18T04:53:26.391Z,26.33
2018-06-18T04:53:58.002Z,26.27
2018-06-18T04:54:29.604Z,26.18
2018-06-18T04:55:01.215Z,26.08
2018-06-18T04:55:32.806Z,25.95
2018-06-18T04:56:04.413Z,25.81
2018-06-18T04:56:36.082Z,25.63
2018-06-18T04:57:07.666Z,25.44
2018-06-18T04:57:39.253Z,25.24
2018-06-18T04:58:10.853Z,25.07
2018-06-18T04:58:42.438Z,24.90
2018-06-18T04:59:14.016Z,24.73
2018-06-18T04:59:45.621Z,24.57
2018-06-18T05:00:17.206Z,24.40
2018-06-18T05:00:48.801Z,24.26
2018-06-18T05:01:20.396Z,24.12
2018-06-18T05:01:51.974Z,23.99
2018-06-18T05:02:23.555Z,23.88
2018-06-18T05:02:55.134Z,23.78
2018-06-18T05:03:26.746Z,23.70
2018-06-18T05:03:58.338Z,23.61
2018-06-18T05:04:29.949Z,23.56
2018-06-18T05:05:01.562Z,23.51
2018-06-18T05:05:33.187Z,23.45
2018-06-18T05:06:04.765Z,23.41
2018-06-18T05:06:36.349Z,23.37
2018-06-18T05:07:07.955Z,23.34
2018-06-18T05:07:39.537Z,23.31
2018-06-18T05:08:11.121Z,23.28
2018-06-18T05:08:42.706Z,23.25
2018-06-18T05:09:14.380Z,23.24
2018-06-18T05:09:45.976Z,23.21
2018-06-18T05:10:17.557Z,23.19
2018-06-18T05:10:49.202Z,23.17
2018-06-18T05:11:20.817Z,23.14
2018-06-18T05:11:52.428Z,23.12
2018-06-18T05:12:24.010Z,23.11
2018-06-18T05:12:55.649Z,23.09
2018-06-18T05:13:27.253Z,23.07
2018-06-18T05:13:58.842Z,23.06
2018-06-18T05:14:30.412Z,23.05
2018-06-18T05:15:02.004Z,23.04
2018-06-18T05:15:33.633Z,23.02
2018-06-18T05:16:05.263Z,23.00
2018-06-18T05:16:36.849Z,23.01
2018-06-18T05:17:08.420Z,23.00
2018-06-18T05:17:39.997Z,23.00
2018-06-18T05:18:11.564Z,22.98
2018-06-18T05:18:43.160Z,22.97
2018-06-18T05:19:14.769Z,22.96
2018-06-18T05:19:46.373Z,22.96
2018-06-18T05:20:17.950Z,22.95
2018-06-18T05:20:49.602Z,22.93
2018-06-18T05:21:21.259Z,22.94
2018-06-18T05:21:53.549Z,22.93
2018-06-18T05:22:25.123Z,22.92
2018-06-18T05:22:56.706Z,22.91
2018-06-18T05:23:28.289Z,22.91
2018-06-18T05:23:59.884Z,22.90
2018-06-18T05:24:31.486Z,22.89
2018-06-18T05:25:03.138Z,22.88
2018-06-18T05:25:34.745Z,22.88
2018-06-18T05:26:06.350Z,22.87
2018-06-18T05:26:37.961Z,22.86
2018-06-18T05:27:09.547Z,22.85
2018-06-18T05:27:41.120Z,22.85
2018-06-18T05:28:12.762Z,22.84
2018-06-18T05:28:44.347Z,22.83
2018-06-18T05:29:15.933Z,22.82
2018-06-18T05:29:47.527Z,22.81
2018-06-18T05:30:19.096Z,22.81
2018-06-18T05:30:50.736Z,22.80
2018-06-18T05:31:22.324Z,22.77
2018-06-18T05:31:53.934Z,22.79
2018-06-18T05:32:25.509Z,22.78
2018-06-18T05:32:57.110Z,22.77
2018-06-18T05:33:28.680Z,22.77
2018-06-18T05:34:00.262Z,22.76
2018-06-18T05:34:31.872Z,22.76
2018-06-18T05:35:03.453Z,22.75
2018-06-18T05:35:35.046Z,22.74
2018-06-18T05:36:06.645Z,22.74
2018-06-18T05:36:38.255Z,22.74
2018-06-18T05:37:09.828Z,22.73
2018-06-18T05:37:41.451Z,22.72
2018-06-18T05:38:13.043Z,22.72
2018-06-18T05:38:44.640Z,22.71
2018-06-18T05:39:16.242Z,22.70
2018-06-18T05:39:47.826Z,22.70
2018-06-18T05:40:19.446Z,22.69
2018-06-18T05:40:51.029Z,22.69
2018-06-18T05:41:22.600Z,22.68
2018-06-18T05:41:54.181Z,22.67
2018-06-18T05:42:25.781Z,22.67
2018-06-18T05:42:57.396Z,22.67
2018-06-18T05:43:29.004Z,22.66
2018-06-18T05:44:00.678Z,22.64
2018-06-18T05:44:32.301Z,22.66
2018-06-18T05:45:03.889Z,22.65
2018-06-18T05:45:35.502Z,22.65
2018-06-18T05:46:07.086Z,22.64
2018-06-18T05:46:38.669Z,22.62
2018-06-18T05:47:10.261Z,22.64
2018-06-18T05:47:41.857Z,22.64
2018-06-18T05:48:13.446Z,22.63
2018-06-18T05:48:45.036Z,22.63
2018-06-18T05:49:16.666Z,22.63
2018-06-18T05:49:48.265Z,22.62
2018-06-18T05:50:19.899Z,22.62
2018-06-18T05:50:51.545Z,22.62
2018-06-18T05:51:23.151Z,22.62
2018-06-18T05:51:54.724Z,22.61
2018-06-18T05:52:26.309Z,22.61
2018-06-18T05:52:57.893Z,22.61
2018-06-18T05:53:29.477Z,22.61
2018-06-18T05:54:01.062Z,22.61
2018-06-18T05:54:32.664Z,22.60
2018-06-18T05:55:04.260Z,22.60
2018-06-18T05:55:35.909Z,22.60
2018-06-18T05:56:07.494Z,22.59
2018-06-18T05:56:39.078Z,22.59
2018-06-18T05:57:10.658Z,22.59
2018-06-18T05:57:42.262Z,22.59
2018-06-18T05:58:13.858Z,22.58
2018-06-18T05:58:45.459Z,22.58
2018-06-18T05:59:17.065Z,22.58
2018-06-18T05:59:48.674Z,22.58
2018-06-18T06:00:20.289Z,22.56
2018-06-18T06:00:51.938Z,22.58
2018-06-18T06:01:23.520Z,22.58
2018-06-18T06:01:55.096Z,22.58
2018-06-18T06:02:26.697Z,22.58
2018-06-18T06:02:58.385Z,22.57
2018-06-18T06:03:29.969Z,22.57
2018-06-18T06:04:01.538Z,22.57
2018-06-18T06:04:33.141Z,22.57
2018-06-18T06:05:04.730Z,22.57
2018-06-18T06:05:36.317Z,22.57
2018-06-18T06:06:07.930Z,22.57
2018-06-18T06:06:39.539Z,22.57
2018-06-18T06:07:11.146Z,22.56
2018-06-18T06:07:42.754Z,22.56
2018-06-18T06:08:14.324Z,22.56
2018-06-18T06:08:45.902Z,22.56
2018-06-18T06:09:17.496Z,22.56
2018-06-18T06:09:49.145Z,22.56
2018-06-18T06:10:20.763Z,22.54
2018-06-18T06:10:52.373Z,22.56
2018-06-18T06:11:24.008Z,22.55
2018-06-18T06:11:55.589Z,22.55
2018-06-18T06:12:27.172Z,22.55
2018-06-18T06:12:58.800Z,22.55
2018-06-18T06:13:30.377Z,22.54
2018-06-18T06:14:01.969Z,22.55
2018-06-18T06:14:33.557Z,22.55
2018-06-18T06:15:05.166Z,22.55
2018-06-18T06:15:36.736Z,22.54
2018-06-18T06:16:08.346Z,22.55
2018-06-18T06:16:39.960Z,22.55
2018-06-18T06:17:11.561Z,22.54
2018-06-18T06:17:43.165Z,22.54
2018-06-18T06:18:14.749Z,22.55
2018-06-18T06:18:46.363Z,22.54
2018-06-18T06:19:17.975Z,22.55
2018-06-18T06:19:49.586Z,22.55
2018-06-18T06:20:21.174Z,22.55
2018-06-18T06:20:52.742Z,22.55
2018-06-18T06:21:24.327Z,22.56
2018-06-18T06:21:55.978Z,22.54
2018-06-18T06:22:27.567Z,22.57
2018-06-18T06:22:59.148Z,22.58
2018-06-18T06:23:30.728Z,22.58
2018-06-18T06:24:02.317Z,22.59
2018-06-18T06:24:33.912Z,22.59
2018-06-18T06:25:05.499Z,22.60
2018-06-18T06:25:37.102Z,22.61
2018-06-18T06:26:08.718Z,22.62
2018-06-18T06:26:40.350Z,22.63
2018-06-18T06:27:11.998Z,22.64
2018-06-18T06:27:43.581Z,22.65
2018-06-18T06:28:15.185Z,22.66
2018-06-18T06:28:46.780Z,22.67
2018-06-18T06:29:18.356Z,22.68
2018-06-18T06:29:49.932Z,22.69
2018-06-18T06:30:21.506Z,22.71
2018-06-18T06:30:53.114Z,22.71
2018-06-18T06:31:24.694Z,22.72
2018-06-18T06:31:56.302Z,22.73
2018-06-18T06:32:27.909Z,22.75
2018-06-18T06:32:59.498Z,22.76
2018-06-18T06:33:31.064Z,22.76
2018-06-18T06:34:02.690Z,22.78
2018-06-18T06:34:34.248Z,22.77
2018-06-18T06:35:05.855Z,22.81
2018-06-18T06:35:37.472Z,22.82
2018-06-18T06:36:09.055Z,22.83
2018-06-18T06:36:40.642Z,22.85
2018-06-18T06:37:12.222Z,22.87
2018-06-18T06:37:43.788Z,22.88
2018-06-18T06:38:15.376Z,22.90
2018-06-18T06:38:46.972Z,22.91
2018-06-18T06:39:18.553Z,22.92
2018-06-18T06:39:50.137Z,22.94
2018-06-18T06:40:21.781Z,22.95
2018-06-18T06:40:53.389Z,22.97
2018-06-18T06:41:24.998Z,22.97
2018-06-18T06:41:56.591Z,22.99
2018-06-18T06:42:28.177Z,23.00
2018-06-18T06:42:59.748Z,22.99
2018-06-18T06:43:31.347Z,23.02
2018-06-18T06:44:02.939Z,23.03
2018-06-18T06:44:34.550Z,23.03
2018-06-18T06:45:06.138Z,23.04
2018-06-18T06:45:37.731Z,23.05
2018-06-18T06:46:09.308Z,23.06
2018-06-18T06:46:40.889Z,23.07
2018-06-18T06:47:12.460Z,23.07
2018-06-18T06:47:44.052Z,23.08
2018-06-18T06:48:15.634Z,23.09
2018-06-18T06:48:47.280Z,23.10
2018-06-18T06:49:18.905Z,23.10
2018-06-18T06:49:50.478Z,23.12
2018-06-18T06:50:22.073Z,23.12
2018-06-18T06:50:53.661Z,23.13
2018-06-18T06:51:25.228Z,23.14
2018-06-18T06:51:56.805Z,23.14
2018-06-18T06:52:28.392Z,23.14
2018-06-18T06:52:59.996Z,23.16
2018-06-18T06:53:31.585Z,23.16
2018-06-18T06:54:03.178Z,23.18
2018-06-18T06:54:34.751Z,23.18
2018-06-18T06:55:06.323Z,23.19
2018-06-18T06:55:37.902Z,23.19
2018-06-18T06:56:09.489Z,23.19
2018-06-18T06:56:41.128Z,23.20
2018-06-18T06:57:12.797Z,23.21
2018-06-18T06:57:44.368Z,23.21
2018-06-18T06:58:15.974Z,23.21
2018-06-18T06:58:47.568Z,23.22
2018-06-18T06:59:19.145Z,23.22
2018-06-18T06:59:50.729Z,23.23
2018-06-18T07:00:22.310Z,23.23
2018-06-18T07:00:53.953Z,23.23
2018-06-18T07:01:25.623Z,23.22
2018-06-18T07:01:57.185Z,23.24
2018-06-18T07:02:28.779Z,23.25
2018-06-18T07:03:00.390Z,23.24
2018-06-18T07:03:31.978Z,23.25
2018-06-18T07:04:03.581Z,23.25
2018-06-18T07:04:35.185Z,23.25
2018-06-18T07:05:06.765Z,23.26
2018-06-18T07:05:38.336Z,23.27